createdAt,value
2023-01-19T00:01:32.000Z,31.5
2023-01-19T00:03:52.000Z,30.95
2023-01-19T00:06:18.000Z,30.8
2023-01-19T00:08:44.000Z,30.65
2023-01-19T00:11:10.000Z,30.27
2023-01-19T00:13:35.000Z,30.33
2023-01-19T00:16:01.000Z,31.07
2023-01-19T00:18:26.000Z,29.9
2023-01-19T00:20:52.000Z,30.65
2023-01-19T00:23:18.000Z,31.35
2023-01-19T00:25:52.000Z,31.35
2023-01-19T00:28:09.000Z,32.15
2023-01-19T00:30:35.000Z,31.6
2023-01-19T00:33:03.000Z,31.6
2023-01-19T00:35:30.000Z,31.55
2023-01-19T00:37:54.000Z,29.87
2023-01-19T00:40:19.000Z,29.57
2023-01-19T00:42:45.000Z,26.97
2023-01-19T00:45:24.000Z,27.57
2023-01-19T00:47:36.000Z,27.73
2023-01-19T00:50:03.000Z,27.58
2023-01-19T00:52:28.000Z,26.68
2023-01-19T00:54:55.000Z,27.25
2023-01-19T00:57:21.000Z,26.93
2023-01-19T00:59:47.000Z,26.67
2023-01-19T01:02:11.000Z,25.92
2023-01-19T01:04:38.000Z,28.55
2023-01-19T01:07:03.000Z,28.67
2023-01-19T01:09:30.000Z,31
2023-01-19T01:11:55.000Z,29.82
2023-01-19T01:14:23.000Z,29.75
2023-01-19T01:16:48.000Z,30.23
2023-01-19T01:19:14.000Z,32.57
2023-01-19T01:21:38.000Z,31.27
2023-01-19T01:24:06.000Z,32.17
2023-01-19T01:26:32.000Z,31.37
2023-01-19T01:28:56.000Z,33.98
2023-01-19T01:31:21.000Z,32
2023-01-19T01:33:52.000Z,32.6
2023-01-19T01:36:13.000Z,31.77
2023-01-19T01:38:43.000Z,32.08
2023-01-19T01:41:04.000Z,30.72
2023-01-19T01:43:31.000Z,28.83
2023-01-19T01:45:59.000Z,27.4
2023-01-19T01:48:21.000Z,27.23
2023-01-19T01:50:48.000Z,26.43
2023-01-19T01:53:14.000Z,27.3
2023-01-19T01:55:39.000Z,26.7
2023-01-19T01:58:05.000Z,26.05
2023-01-19T02:00:38.000Z,24.8
2023-01-19T02:02:56.000Z,25.68
2023-01-19T02:05:22.000Z,24.7
2023-01-19T02:07:49.000Z,24.17
2023-01-19T02:10:16.000Z,24.23
2023-01-19T02:12:40.000Z,24.93
2023-01-19T02:15:05.000Z,25.2
2023-01-19T02:17:33.000Z,25.7
2023-01-19T02:19:58.000Z,25.55
2023-01-19T02:22:24.000Z,24.37
2023-01-19T02:24:49.000Z,24.98
2023-01-19T02:27:15.000Z,27.47
2023-01-19T02:29:41.000Z,26.83
2023-01-19T02:32:07.000Z,26.23
2023-01-19T02:34:33.000Z,26.07
2023-01-19T02:36:59.000Z,26.77
2023-01-19T02:39:24.000Z,27.17
2023-01-19T02:41:50.000Z,26.87
2023-01-19T02:44:16.000Z,25.4
2023-01-19T02:46:41.000Z,23.73
2023-01-19T02:49:08.000Z,22.23
2023-01-19T02:51:33.000Z,21.7
2023-01-19T02:53:59.000Z,21.33
2023-01-19T02:56:25.000Z,21.1
2023-01-19T02:58:50.000Z,19.48
2023-01-19T03:01:18.000Z,18.47
2023-01-19T03:03:42.000Z,18.2
2023-01-19T03:06:06.000Z,16.35
2023-01-19T03:08:34.000Z,15.37
2023-01-19T03:11:00.000Z,17.1
2023-01-19T03:13:26.000Z,15.45
2023-01-19T03:15:51.000Z,15.07
2023-01-19T03:18:17.000Z,16.03
2023-01-19T03:20:44.000Z,15.85
2023-01-19T03:23:09.000Z,15.7
2023-01-19T03:25:35.000Z,15.08
2023-01-19T03:28:01.000Z,14.98
2023-01-19T03:30:27.000Z,15.9
2023-01-19T03:32:52.000Z,16.3
2023-01-19T03:35:20.000Z,15.7
2023-01-19T03:37:44.000Z,15.58
2023-01-19T03:40:12.000Z,15.6
2023-01-19T03:42:35.000Z,15.18
2023-01-19T03:45:00.000Z,15.3
2023-01-19T03:47:26.000Z,14.8
2023-01-19T03:49:53.000Z,15.72
2023-01-19T03:52:18.000Z,15.5
2023-01-19T03:54:45.000Z,15.2
2023-01-19T03:57:10.000Z,15.2
2023-01-19T03:59:36.000Z,15.43
2023-01-19T04:02:02.000Z,14.47
2023-01-19T04:04:41.000Z,12.43
2023-01-19T04:06:55.000Z,13.9
2023-01-19T04:09:20.000Z,13.38
2023-01-19T04:11:45.000Z,13.88
2023-01-19T04:14:10.000Z,14
2023-01-19T04:16:37.000Z,13.43
2023-01-19T04:19:02.000Z,11.07
2023-01-19T04:21:28.000Z,11.03
2023-01-19T04:23:53.000Z,11.88
2023-01-19T04:26:19.000Z,11.3
2023-01-19T04:28:45.000Z,11.87
2023-01-19T04:31:11.000Z,10.95
2023-01-19T04:33:37.000Z,11.47
2023-01-19T04:36:03.000Z,11.5
2023-01-19T04:38:29.000Z,10.82
2023-01-19T04:40:56.000Z,12.28
2023-01-19T04:43:20.000Z,11.6
2023-01-19T04:45:45.000Z,11.47
2023-01-19T04:48:12.000Z,11.83
2023-01-19T04:50:43.000Z,10.82
2023-01-19T04:53:03.000Z,13.17
2023-01-19T04:55:36.000Z,13
2023-01-19T05:01:22.000Z,13.48
2023-01-19T05:03:46.000Z,11.97
2023-01-19T05:06:11.000Z,12.28
2023-01-19T05:08:38.000Z,11.67
2023-01-19T05:11:03.000Z,10.53
2023-01-19T05:13:33.000Z,11.08
2023-01-19T05:15:55.000Z,11.05
2023-01-19T05:18:22.000Z,9.7
2023-01-19T05:20:45.000Z,10.67
2023-01-19T05:23:11.000Z,10
2023-01-19T05:25:38.000Z,9.53
2023-01-19T05:28:03.000Z,9.85
2023-01-19T05:30:29.000Z,9.4
2023-01-19T05:32:55.000Z,9.97
2023-01-19T05:35:24.000Z,9.18
2023-01-19T05:37:46.000Z,8.88
2023-01-19T05:40:14.000Z,8.1
2023-01-19T05:42:38.000Z,7.7
2023-01-19T05:45:03.000Z,8.3
2023-01-19T05:47:28.000Z,8.48
2023-01-19T05:49:56.000Z,8.5
2023-01-19T05:52:21.000Z,8.33
2023-01-19T05:57:13.000Z,7.7
2023-01-19T05:59:41.000Z,7.9
2023-01-19T06:02:31.000Z,7.78
2023-01-19T06:04:30.000Z,7.87
2023-01-19T06:06:56.000Z,7.6
2023-01-19T06:09:21.000Z,7.6
2023-01-19T06:11:46.000Z,7.7
2023-01-19T06:14:13.000Z,7.95
2023-01-19T06:16:37.000Z,8
2023-01-19T06:19:05.000Z,8.13
2023-01-19T06:21:29.000Z,8.03
2023-01-19T06:23:56.000Z,7.7
2023-01-19T06:26:21.000Z,7.78
2023-01-19T06:28:48.000Z,7.92
2023-01-19T06:31:14.000Z,7.6
2023-01-19T06:33:39.000Z,7.7
2023-01-19T06:36:06.000Z,7.8
2023-01-19T06:38:31.000Z,7.2
2023-01-19T06:40:56.000Z,7
2023-01-19T06:43:23.000Z,7.9
2023-01-19T06:45:48.000Z,7.4
2023-01-19T06:48:15.000Z,7.7
2023-01-19T06:50:41.000Z,7.85
2023-01-19T06:53:07.000Z,7.75
2023-01-19T06:55:31.000Z,8.35
2023-01-19T06:57:57.000Z,8.33
2023-01-19T07:00:33.000Z,8.6
2023-01-19T07:02:51.000Z,8.3
2023-01-19T07:05:16.000Z,9.25
2023-01-19T07:07:42.000Z,9.6
2023-01-19T07:10:09.000Z,9.93
2023-01-19T07:12:33.000Z,10.58
2023-01-19T07:14:59.000Z,10.93
2023-01-19T07:19:52.000Z,10.38
2023-01-19T07:22:17.000Z,10.8
2023-01-19T07:24:43.000Z,10.2
2023-01-19T07:27:09.000Z,10.3
2023-01-19T07:29:35.000Z,9.83
2023-01-19T07:32:00.000Z,9.53
2023-01-19T07:34:25.000Z,10.93
2023-01-19T07:36:51.000Z,10.33
2023-01-19T07:39:18.000Z,10.28
2023-01-19T07:41:53.000Z,8.8
2023-01-19T07:44:08.000Z,9.4
2023-01-19T07:46:34.000Z,9.7
2023-01-19T07:49:00.000Z,9.6
2023-01-19T07:51:26.000Z,9.55
2023-01-19T07:53:52.000Z,9.4
2023-01-19T07:56:17.000Z,8.9
2023-01-19T07:58:43.000Z,9.6
2023-01-19T08:01:14.000Z,9.55
2023-01-19T08:03:34.000Z,8.85
2023-01-19T08:06:00.000Z,8.77
2023-01-19T08:08:25.000Z,8.6
2023-01-19T08:10:52.000Z,8.6
2023-01-19T08:13:17.000Z,8.48
2023-01-19T08:15:49.000Z,8.4
2023-01-19T08:18:09.000Z,8.3
2023-01-19T08:20:34.000Z,8.75
2023-01-19T08:22:59.000Z,9.5
2023-01-19T08:25:26.000Z,9.83
2023-01-19T08:27:52.000Z,10.33
2023-01-19T08:30:24.000Z,11.08
2023-01-19T08:32:43.000Z,11.77
2023-01-19T08:35:08.000Z,12.8
2023-01-19T08:37:34.000Z,13.38
2023-01-19T08:40:00.000Z,13.2
2023-01-19T08:42:28.000Z,15.6
2023-01-19T08:44:52.000Z,17
2023-01-19T08:47:17.000Z,18.57
2023-01-19T08:49:43.000Z,18.23
2023-01-19T08:52:09.000Z,21.42
2023-01-19T08:54:34.000Z,21.2
2023-01-19T08:57:00.000Z,21.82
2023-01-19T08:59:30.000Z,22.48
2023-01-19T09:01:53.000Z,21.25
2023-01-19T09:04:18.000Z,22.02
2023-01-19T09:06:44.000Z,21.5
2023-01-19T09:09:41.000Z,21.33
2023-01-19T09:12:06.000Z,20.9
2023-01-19T09:14:33.000Z,19.98
2023-01-19T09:16:58.000Z,19.75
2023-01-19T09:19:24.000Z,19.52
2023-01-19T09:21:50.000Z,20.35
2023-01-19T09:24:15.000Z,19.6
2023-01-19T09:26:42.000Z,20.3
2023-01-19T09:29:07.000Z,20.2
2023-01-19T09:31:33.000Z,19.55
2023-01-19T09:33:58.000Z,18.77
2023-01-19T09:36:24.000Z,18.83
2023-01-19T09:38:51.000Z,19.25
2023-01-19T09:41:16.000Z,19.85
2023-01-19T09:43:41.000Z,20.3
2023-01-19T09:46:09.000Z,20.53
2023-01-19T09:48:36.000Z,20.27
2023-01-19T09:51:07.000Z,20.77
2023-01-19T09:53:26.000Z,20.57
2023-01-19T09:55:51.000Z,21.4
2023-01-19T09:58:17.000Z,20.88
2023-01-19T10:00:47.000Z,21.67
2023-01-19T10:03:09.000Z,23.23
2023-01-19T10:05:35.000Z,22.55
2023-01-19T10:08:00.000Z,22.73
2023-01-19T10:10:29.000Z,22.63
2023-01-19T10:12:51.000Z,23.27
2023-01-19T10:15:17.000Z,22.67
2023-01-19T10:17:44.000Z,22.7
2023-01-19T10:20:13.000Z,23.13
2023-01-19T10:22:35.000Z,23.27
2023-01-19T10:25:01.000Z,23.77
2023-01-19T10:27:27.000Z,24.5
2023-01-19T10:29:52.000Z,23.73
2023-01-19T10:32:18.000Z,23.7
2023-01-19T10:34:44.000Z,23.4
2023-01-19T10:37:09.000Z,23.1
2023-01-19T10:39:35.000Z,23.27
2023-01-19T10:42:01.000Z,22.4
2023-01-19T10:44:28.000Z,25.1
2023-01-19T10:46:53.000Z,24.55
2023-01-19T10:49:18.000Z,24.5
2023-01-19T10:51:43.000Z,25.37
2023-01-19T10:54:10.000Z,27.9
2023-01-19T10:56:35.000Z,27.7
2023-01-19T10:59:00.000Z,29.67
2023-01-19T11:01:27.000Z,29.98
2023-01-19T11:03:52.000Z,29.42
2023-01-19T11:06:18.000Z,29.45
2023-01-19T11:08:47.000Z,26.62
2023-01-19T11:11:14.000Z,26.47
2023-01-19T11:13:38.000Z,27.2
2023-01-19T11:16:05.000Z,27.2
2023-01-19T11:18:30.000Z,27.52
2023-01-19T11:20:55.000Z,29.1
2023-01-19T11:23:22.000Z,28.73
2023-01-19T11:25:47.000Z,30.1
2023-01-19T11:28:14.000Z,30.57
2023-01-19T11:30:39.000Z,29.67
2023-01-19T11:33:06.000Z,30.73
2023-01-19T11:35:33.000Z,31.02
2023-01-19T11:37:57.000Z,30.72
2023-01-19T11:40:22.000Z,29.4
2023-01-19T11:42:48.000Z,29.72
2023-01-19T11:45:14.000Z,28.73
2023-01-19T11:47:41.000Z,29.6
2023-01-19T11:50:10.000Z,29.82
2023-01-19T11:52:32.000Z,29.18
2023-01-19T11:55:02.000Z,29.27
2023-01-19T11:57:23.000Z,30.23
2023-01-19T11:59:53.000Z,30.83
2023-01-19T12:02:28.000Z,31.55
2023-01-19T12:04:41.000Z,31.27
2023-01-19T12:07:05.000Z,31.57
2023-01-19T12:09:44.000Z,29.93
2023-01-19T12:11:59.000Z,28.9
2023-01-19T12:14:26.000Z,29.55
2023-01-19T12:16:49.000Z,29.37
2023-01-19T12:19:15.000Z,29.17
2023-01-19T12:21:41.000Z,27.73
2023-01-19T12:24:07.000Z,28.07
2023-01-19T12:26:33.000Z,27.13
2023-01-19T12:28:59.000Z,26.77
2023-01-19T12:31:24.000Z,26.63
2023-01-19T12:33:50.000Z,26.9
2023-01-19T12:36:16.000Z,27.02
2023-01-19T12:38:41.000Z,25.68
2023-01-19T12:41:07.000Z,25.1
2023-01-19T12:43:33.000Z,25.4
2023-01-19T12:46:00.000Z,25.35
2023-01-19T12:48:24.000Z,24.82
2023-01-19T12:50:50.000Z,25.23
2023-01-19T12:53:16.000Z,25.93
2023-01-19T12:55:42.000Z,26.48
2023-01-19T12:58:07.000Z,25.23
2023-01-19T13:00:59.000Z,25.13
2023-01-19T13:03:00.000Z,24.55
2023-01-19T13:05:24.000Z,25.1
2023-01-19T13:07:50.000Z,26.27
2023-01-19T13:10:30.000Z,26.1
2023-01-19T13:12:41.000Z,25.97
2023-01-19T13:15:07.000Z,25.97
2023-01-19T13:17:35.000Z,26.17
2023-01-19T13:19:59.000Z,27.4
2023-01-19T13:22:24.000Z,27.83
2023-01-19T13:24:50.000Z,27.87
2023-01-19T13:27:16.000Z,28.57
2023-01-19T13:29:42.000Z,28.87
2023-01-19T13:32:07.000Z,30.03
2023-01-19T13:34:33.000Z,28.9
2023-01-19T13:36:59.000Z,31.17
2023-01-19T13:39:25.000Z,29.87
2023-01-19T13:41:51.000Z,30
2023-01-19T13:44:17.000Z,31
2023-01-19T13:46:43.000Z,29.8
2023-01-19T13:49:13.000Z,30.47
2023-01-19T13:51:35.000Z,30.57
2023-01-19T13:54:00.000Z,30.95
2023-01-19T13:56:26.000Z,31.95
2023-01-19T13:58:51.000Z,31.17
2023-01-19T14:01:18.000Z,30.48
2023-01-19T14:03:43.000Z,30.37
2023-01-19T14:06:09.000Z,29.7
2023-01-19T14:08:36.000Z,30.43
2023-01-19T14:11:05.000Z,31.6
2023-01-19T14:13:26.000Z,32.23
2023-01-19T14:15:53.000Z,31.82
2023-01-19T14:18:18.000Z,31.5
2023-01-19T14:20:44.000Z,31.05
2023-01-19T14:23:10.000Z,30.02
2023-01-19T14:25:47.000Z,30.3
2023-01-19T14:28:02.000Z,29.17
2023-01-19T14:30:28.000Z,30.55
2023-01-19T14:32:54.000Z,30.2
2023-01-19T14:35:22.000Z,31.87
2023-01-19T14:37:45.000Z,31.4
2023-01-19T14:40:11.000Z,31.1
2023-01-19T14:42:37.000Z,30.25
2023-01-19T14:45:03.000Z,29.95
2023-01-19T14:47:29.000Z,29.85
2023-01-19T14:49:55.000Z,28.77
2023-01-19T14:52:50.000Z,30.52
2023-01-19T14:55:18.000Z,32.3
2023-01-19T14:57:22.000Z,30.25
2023-01-19T14:59:44.000Z,31.27
2023-01-19T15:02:04.000Z,31.37
2023-01-19T15:04:31.000Z,29.55
2023-01-19T15:06:56.000Z,31.97
2023-01-19T15:09:23.000Z,32.8
2023-01-19T15:11:47.000Z,32.43
2023-01-19T15:14:15.000Z,34.13
2023-01-19T15:16:41.000Z,33.95
2023-01-19T15:19:07.000Z,34.43
2023-01-19T15:21:41.000Z,35.13
2023-01-19T15:23:58.000Z,35.83
2023-01-19T15:26:23.000Z,36.68
2023-01-19T15:28:49.000Z,38.08
2023-01-19T15:31:16.000Z,38.08
2023-01-19T15:33:41.000Z,38.53
2023-01-19T15:36:07.000Z,37.27
2023-01-19T15:38:32.000Z,37.08
2023-01-19T15:40:59.000Z,37.45
2023-01-19T15:43:24.000Z,38.53
2023-01-19T15:45:55.000Z,37.75
2023-01-19T15:48:21.000Z,39.5
2023-01-19T15:50:42.000Z,38.3
2023-01-19T15:53:09.000Z,36.2
2023-01-19T15:55:34.000Z,37.1
2023-01-19T15:58:00.000Z,36.65
2023-01-19T16:00:50.000Z,38.13
2023-01-19T16:03:23.000Z,37.93
2023-01-19T16:05:17.000Z,37.28
2023-01-19T16:07:42.000Z,39.17
2023-01-19T16:10:09.000Z,36.93
2023-01-19T16:12:41.000Z,36.4
2023-01-19T16:15:00.000Z,36.63
2023-01-19T16:17:26.000Z,36.3
2023-01-19T16:19:52.000Z,36.83
2023-01-19T16:22:18.000Z,36.7
2023-01-19T16:24:44.000Z,35.3
2023-01-19T16:27:09.000Z,35.37
2023-01-19T16:29:36.000Z,36.3
2023-01-19T16:32:01.000Z,36.38
2023-01-19T16:34:28.000Z,34.75
2023-01-19T16:36:53.000Z,33.92
2023-01-19T16:39:21.000Z,35.1
2023-01-19T16:41:45.000Z,34.13
2023-01-19T16:44:11.000Z,34.67
2023-01-19T16:46:37.000Z,34.9
2023-01-19T16:49:02.000Z,34.83
2023-01-19T16:51:29.000Z,34.92
2023-01-19T16:53:54.000Z,35.43
2023-01-19T16:56:20.000Z,34.2
2023-01-19T16:58:45.000Z,34.47
2023-01-19T17:01:13.000Z,34.15
2023-01-19T17:03:39.000Z,35.3
2023-01-19T17:06:03.000Z,34.4
2023-01-19T17:08:32.000Z,33.55
2023-01-19T17:10:55.000Z,33.67
2023-01-19T17:13:21.000Z,34.27
2023-01-19T17:15:46.000Z,33.5
2023-01-19T17:18:13.000Z,34.1
2023-01-19T17:20:38.000Z,33.55
2023-01-19T17:23:04.000Z,33.18
2023-01-19T17:26:08.000Z,33.5
2023-01-19T17:28:35.000Z,34.05
2023-01-19T17:30:59.000Z,33.65
2023-01-19T17:33:25.000Z,33.67
2023-01-19T17:35:51.000Z,35.07
2023-01-19T17:38:16.000Z,35.1
2023-01-19T17:40:43.000Z,34.33
2023-01-19T17:43:09.000Z,34.92
2023-01-19T17:45:34.000Z,35.38
2023-01-19T17:48:05.000Z,35.7
2023-01-19T17:50:26.000Z,35.48
2023-01-19T17:52:54.000Z,34
2023-01-19T17:55:17.000Z,34.07
2023-01-19T17:57:44.000Z,34.25
2023-01-19T18:00:10.000Z,35.28
2023-01-19T18:02:36.000Z,35.3
2023-01-19T18:05:02.000Z,34.03
2023-01-19T18:07:27.000Z,34.3
2023-01-19T18:09:54.000Z,33.85
2023-01-19T18:12:21.000Z,34.67
2023-01-19T18:14:46.000Z,35.75
2023-01-19T18:17:13.000Z,34
2023-01-19T18:19:44.000Z,34.17
2023-01-19T18:22:06.000Z,34.45
2023-01-19T18:24:33.000Z,33.4
2023-01-19T18:26:59.000Z,33.38
2023-01-19T18:29:26.000Z,34.48
2023-01-19T18:31:59.000Z,33.98
2023-01-19T18:34:18.000Z,33.73
2023-01-19T18:36:44.000Z,32.2
2023-01-19T18:39:12.000Z,32.55
2023-01-19T18:41:37.000Z,31.52
2023-01-19T18:44:04.000Z,31.7
2023-01-19T18:46:29.000Z,31.12
2023-01-19T18:48:56.000Z,31.9
2023-01-19T18:51:22.000Z,32.15
2023-01-19T18:53:47.000Z,31.48
2023-01-19T18:56:13.000Z,32.03
2023-01-19T18:58:39.000Z,31.4
2023-01-19T19:01:06.000Z,31.35
2023-01-19T19:03:32.000Z,31.5
2023-01-19T19:05:57.000Z,31.33
2023-01-19T19:08:26.000Z,31.4
2023-01-19T19:10:50.000Z,31.75
2023-01-19T19:13:16.000Z,31.42
2023-01-19T19:15:45.000Z,30.62
2023-01-19T19:18:10.000Z,31.1
2023-01-19T19:20:36.000Z,31.9
2023-01-19T19:23:08.000Z,32.27
2023-01-19T19:25:28.000Z,33.67
2023-01-19T19:27:57.000Z,33.63
2023-01-19T19:30:22.000Z,33.53
2023-01-19T19:32:49.000Z,33.9
2023-01-19T19:35:14.000Z,34.53
2023-01-19T19:37:41.000Z,34.6
2023-01-19T19:40:10.000Z,34.67
2023-01-19T19:42:32.000Z,34.33
2023-01-19T19:44:57.000Z,33.9
2023-01-19T19:47:23.000Z,33.9
2023-01-19T19:49:54.000Z,34.03
2023-01-19T19:52:20.000Z,34.53
2023-01-19T19:54:41.000Z,33.58
2023-01-19T19:57:06.000Z,33.4
2023-01-19T19:59:36.000Z,34.13
2023-01-19T20:01:58.000Z,33.4
2023-01-19T20:04:24.000Z,35.28
2023-01-19T20:06:50.000Z,33.73
2023-01-19T20:09:17.000Z,34.63
2023-01-19T20:11:42.000Z,34.78
2023-01-19T20:14:08.000Z,34.7
2023-01-19T20:16:35.000Z,34.33
2023-01-19T20:19:04.000Z,32.35
2023-01-19T20:21:26.000Z,32.48
2023-01-19T20:23:52.000Z,30.43
2023-01-19T20:26:18.000Z,29.13
2023-01-19T20:28:45.000Z,29.05
2023-01-19T20:31:10.000Z,27.6
2023-01-19T20:33:40.000Z,28.2
2023-01-19T20:36:01.000Z,27.2
2023-01-19T20:38:28.000Z,26.95
2023-01-19T20:40:53.000Z,26.7
2023-01-19T20:43:19.000Z,27.2
2023-01-19T20:45:45.000Z,26.52
2023-01-19T20:48:11.000Z,25.97
2023-01-19T20:50:46.000Z,24.2
2023-01-19T20:53:03.000Z,23.77
2023-01-19T20:55:29.000Z,23.27
2023-01-19T20:57:54.000Z,22
2023-01-19T21:00:27.000Z,22.07
2023-01-19T21:02:47.000Z,21.55
2023-01-19T21:05:12.000Z,20.48
2023-01-19T21:07:38.000Z,20.15
2023-01-19T21:10:05.000Z,19.48
2023-01-19T21:12:31.000Z,20.1
2023-01-19T21:14:56.000Z,20.27
2023-01-19T21:17:21.000Z,20
2023-01-19T21:19:48.000Z,19.82
2023-01-19T21:22:17.000Z,19.37
2023-01-19T21:24:39.000Z,18.9
2023-01-19T21:27:04.000Z,18.42
2023-01-19T21:29:30.000Z,17.65
2023-01-19T21:31:56.000Z,18.23
2023-01-19T21:34:23.000Z,17.52
2023-01-19T21:36:48.000Z,17.7
2023-01-19T21:39:14.000Z,18.1
2023-01-19T21:41:39.000Z,18.12
2023-01-19T21:44:06.000Z,18.67
2023-01-19T21:46:32.000Z,18.05
2023-01-19T21:49:18.000Z,17.6
2023-01-19T21:51:51.000Z,18.07
2023-01-19T21:53:49.000Z,19.02
2023-01-19T21:56:15.000Z,18.12
2023-01-19T21:58:42.000Z,18.42
2023-01-19T22:01:08.000Z,18.5
2023-01-19T22:03:33.000Z,18.1
2023-01-19T22:05:59.000Z,18.77
2023-01-19T22:08:25.000Z,18.47
2023-01-19T22:10:52.000Z,18.13
2023-01-19T22:13:17.000Z,17.85
2023-01-19T22:15:44.000Z,18.55
2023-01-19T22:18:35.000Z,18.9
2023-01-19T22:20:58.000Z,18.25
2023-01-19T22:23:03.000Z,18.8
2023-01-19T22:25:30.000Z,18.05
2023-01-19T22:27:56.000Z,18.85
2023-01-19T22:30:24.000Z,18.9
2023-01-19T22:32:48.000Z,19.63
2023-01-19T22:35:16.000Z,19.7
2023-01-19T22:37:43.000Z,20.13
2023-01-19T22:40:19.000Z,19.02
2023-01-19T22:42:38.000Z,19.8
2023-01-19T22:45:11.000Z,20.27
2023-01-19T22:47:37.000Z,20.97
2023-01-19T22:50:21.000Z,21
2023-01-19T22:52:32.000Z,20.95
2023-01-19T22:55:01.000Z,20.5
2023-01-19T22:57:31.000Z,21.33
2023-01-19T23:00:00.000Z,20.75
2023-01-19T23:02:27.000Z,21.4
2023-01-19T23:04:55.000Z,20.27
2023-01-19T23:07:22.000Z,20.88
2023-01-19T23:09:52.000Z,20.85
2023-01-19T23:12:18.000Z,21.62
2023-01-19T23:14:44.000Z,22.7
2023-01-19T23:17:11.000Z,21.75
2023-01-19T23:19:37.000Z,23.45
2023-01-19T23:22:03.000Z,23.45
2023-01-19T23:24:32.000Z,23.47
2023-01-19T23:26:59.000Z,23.77
2023-01-19T23:29:26.000Z,25.68
2023-01-19T23:32:09.000Z,25.5
2023-01-19T23:34:25.000Z,27.85
2023-01-19T23:36:52.000Z,28.35
2023-01-19T23:39:25.000Z,26.93
2023-01-19T23:41:51.000Z,30.6
2023-01-19T23:44:18.000Z,32.38
2023-01-19T23:46:45.000Z,35.58
2023-01-19T23:49:16.000Z,37.67
2023-01-19T23:51:45.000Z,37.08
2023-01-19T23:54:15.000Z,37.42
2023-01-19T23:56:44.000Z,39.38
2023-01-19T23:59:16.000Z,40.17
